Time;durP1;ratioP1;P1;durP2;ratioP2;P2;SDS_P1;SDS_P2;PMS_P1;PMS_P2;Temp;Humidity;BMP_temperature;BMP_pressure;BME280_temperature;BME280_humidity;BME280_pressure;Samples;Min_cycle;Max_cycle;Signal;HPM_P1;HPM_P2
2021/01/13 00:02:25;;;;;;;7.22;3.55;;;3.70;80.70;;;;;;4899549;29;20036;-89
2021/01/13 00:04:51;;;;;;;8.75;3.97;;;3.70;80.60;;;;;;4883528;29;20099;-88
2021/01/13 00:07:17;;;;;;;10.95;3.78;;;3.70;80.60;;;;;;4883617;29;20540;-89
2021/01/13 00:09:43;;;;;;;7.03;3.38;;;3.70;80.60;;;;;;4883797;29;20082;-89
2021/01/13 00:12:09;;;;;;;13.43;4.30;;;3.70;80.60;;;;;;4899255;29;20032;-89
2021/01/13 00:14:35;;;;;;;8.10;3.72;;;3.70;80.60;;;;;;4899463;29;20044;-89
2021/01/13 00:17:01;;;;;;;9.98;3.58;;;3.70;80.60;;;;;;4898789;29;20036;-89
2021/01/13 00:19:27;;;;;;;9.18;4.15;;;3.70;80.60;;;;;;4868396;29;20075;-89
2021/01/13 00:21:54;;;;;;;9.70;3.95;;;3.70;80.60;;;;;;4898802;29;20039;-89
2021/01/13 00:24:21;;;;;;;9.52;3.97;;;3.70;80.70;;;;;;4883767;29;20048;-88
2021/01/13 00:26:46;;;;;;;8.43;4.45;;;3.60;80.60;;;;;;4898636;29;20096;-89
2021/01/13 00:29:18;;;;;;;9.63;4.60;;;3.60;80.70;;;;;;4884030;29;20501;-88
2021/01/13 00:31:47;;;;;;;9.50;4.10;;;3.60;80.80;;;;;;4893675;29;20426;-89
2021/01/13 00:34:15;;;;;;;11.77;4.60;;;3.60;80.80;;;;;;4867516;29;20099;-88
2021/01/13 00:36:41;;;;;;;8.27;4.10;;;3.60;80.90;;;;;;4898612;29;20044;-89
2021/01/13 00:39:07;;;;;;;8.90;4.63;;;3.60;81.00;;;;;;4914750;29;20051;-89
2021/01/13 00:41:36;;;;;;;9.48;4.68;;;3.60;81.10;;;;;;4917875;29;20063;-89
2021/01/13 00:44:02;;;;;;;8.15;4.22;;;3.60;81.80;;;;;;4917350;29;20482;-89
2021/01/13 00:46:35;;;;;;;14.32;4.72;;;3.60;81.30;;;;;;4901809;29;20152;-89
2021/01/13 00:49:08;;;;;;;9.73;4.63;;;3.60;81.40;;;;;;4902098;29;20508;-89
2021/01/13 00:51:42;;;;;;;10.40;4.20;;;3.60;81.40;;;;;;4904169;29;20067;-89
2021/01/13 00:54:09;;;;;;;10.90;4.20;;;3.60;81.40;;;;;;4920801;29;20032;-89
2021/01/13 00:56:38;;;;;;;11.30;5.22;;;3.60;81.40;;;;;;4905481;29;20043;-90
2021/01/13 00:59:04;;;;;;;10.45;4.75;;;3.50;81.40;;;;;;4920698;29;20119;-89
2021/01/13 01:01:30;;;;;;;7.80;4.30;;;3.60;81.50;;;;;;4920961;29;20135;-89
2021/01/13 01:03:56;;;;;;;12.85;4.38;;;3.60;81.50;;;;;;4920699;29;20091;-89
2021/01/13 01:06:22;;;;;;;9.68;4.25;;;3.60;81.50;;;;;;4905555;29;20040;-89
2021/01/13 01:08:48;;;;;;;8.98;3.90;;;3.60;81.50;;;;;;4937031;29;20102;-89
2021/01/13 01:11:37;;;;;;;8.60;4.15;;;3.60;81.50;;;;;;4921003;29;20067;-89
2021/01/13 01:14:05;;;;;;;7.65;3.72;;;3.60;81.50;;;;;;4904826;29;20031;-89
2021/01/13 01:16:32;;;;;;;8.50;3.92;;;3.60;81.50;;;;;;4920804;29;20032;-89
2021/01/13 01:18:59;;;;;;;7.60;3.90;;;3.60;81.40;;;;;;4905801;29;20040;-89
2021/01/13 01:21:25;;;;;;;8.82;3.80;;;3.60;81.40;;;;;;4903640;29;20036;-89
2021/01/13 01:23:51;;;;;;;8.43;4.07;;;3.60;81.40;;;;;;4931967;23;20044;-83
2021/01/13 01:26:17;;;;;;;13.13;4.47;;;3.60;81.30;;;;;;4918690;29;20036;-83
2021/01/13 01:28:43;;;;;;;9.88;4.80;;;3.60;81.30;;;;;;4900804;29;20039;-83
2021/01/13 01:31:08;;;;;;;14.80;4.90;;;3.60;81.30;;;;;;4900356;29;20063;-83
2021/01/13 01:33:34;;;;;;;14.60;5.32;;;3.60;81.40;;;;;;4884991;29;20114;-83
2021/01/13 01:35:59;;;;;;;16.25;4.25;;;3.60;81.50;;;;;;4898537;29;20557;-83
2021/01/13 01:38:25;;;;;;;12.68;4.90;;;3.60;81.50;;;;;;4888039;29;20134;-83
2021/01/13 01:40:51;;;;;;;8.35;4.85;;;3.60;81.60;;;;;;4903352;29;20083;-83
2021/01/13 01:43:16;;;;;;;11.80;4.97;;;3.60;81.80;;;;;;4903657;29;20046;-83
2021/01/13 01:45:43;;;;;;;12.80;5.07;;;3.60;81.80;;;;;;4911057;29;20036;-83
2021/01/13 01:48:21;;;;;;;7.78;5.10;;;3.60;81.90;;;;;;4921551;29;20040;-83
2021/01/13 01:50:47;;;;;;;10.57;5.47;;;3.60;81.90;;;;;;4900499;29;20035;-83
2021/01/13 01:53:50;;;;;;;7.80;4.53;;;3.60;81.80;;;;;;4900279;29;20283;-83
2021/01/13 01:56:24;;;;;;;10.00;4.85;;;3.60;81.80;;;;;;4900184;29;20075;-83
2021/01/13 01:58:59;;;;;;;14.88;6.05;;;3.60;81.70;;;;;;4935125;29;20553;-83
2021/01/13 02:01:35;;;;;;;10.50;5.30;;;3.60;81.80;;;;;;4936094;29;20485;-83
2021/01/13 02:04:07;;;;;;;11.20;5.45;;;3.60;82.50;;;;;;4934757;29;20028;-83
2021/01/13 02:06:41;;;;;;;13.95;6.43;;;3.60;81.90;;;;;;4918819;29;20035;-83
2021/01/13 02:09:07;;;;;;;10.70;5.18;;;3.60;82.00;;;;;;4931365;29;20554;-83
2021/01/13 02:11:37;;;;;;;12.00;5.50;;;3.60;81.90;;;;;;4869001;29;20059;-83
2021/01/13 02:14:03;;;;;;;9.32;5.63;;;3.60;81.90;;;;;;4899672;29;20082;-83
2021/01/13 02:16:31;;;;;;;8.98;4.95;;;3.60;81.80;;;;;;4899944;29;20067;-83
2021/01/13 02:19:00;;;;;;;9.35;5.22;;;3.60;81.80;;;;;;4881763;29;20127;-83
2021/01/13 02:21:31;;;;;;;8.77;4.88;;;3.60;81.70;;;;;;4908150;29;20035;-83
2021/01/13 02:24:09;;;;;;;9.13;5.00;;;3.60;81.80;;;;;;4917410;29;20050;-83
2021/01/13 02:26:56;;;;;;;9.60;4.53;;;3.60;81.70;;;;;;4918442;29;20036;-83
2021/01/13 02:29:31;;;;;;;7.82;5.40;;;3.60;81.70;;;;;;4935609;29;20046;-83
2021/01/13 02:32:10;;;;;;;8.13;5.28;;;3.60;81.60;;;;;;4935214;29;20035;-83
2021/01/13 02:35:02;;;;;;;9.93;5.20;;;3.60;81.60;;;;;;4935479;29;20071;-83
2021/01/13 02:37:45;;;;;;;9.68;6.20;;;3.60;81.60;;;;;;4901362;29;20589;-83
2021/01/13 02:40:16;;;;;;;10.70;6.20;;;3.60;81.60;;;;;;4899080;29;20479;-83
2021/01/13 02:43:09;;;;;;;13.68;6.72;;;3.60;81.60;;;;;;4916334;29;20037;-83
2021/01/13 02:45:58;;;;;;;10.95;6.95;;;3.60;81.70;;;;;;4894911;29;20047;-83
2021/01/13 02:48:23;;;;;;;14.45;8.02;;;3.60;81.90;;;;;;4899302;29;20143;-83
2021/01/13 02:50:58;;;;;;;11.52;6.68;;;3.60;82.00;;;;;;4898216;29;20464;-83
2021/01/13 02:53:30;;;;;;;11.73;6.78;;;3.60;82.10;;;;;;4902228;29;20043;-83
2021/01/13 02:55:55;;;;;;;15.35;8.13;;;3.60;82.20;;;;;;4934741;29;20039;-83
2021/01/13 02:58:26;;;;;;;16.42;7.65;;;3.60;82.30;;;;;;4935062;29;20035;-83
2021/01/13 03:00:55;;;;;;;13.73;7.50;;;3.50;82.30;;;;;;4917871;29;20489;-83
2021/01/13 03:03:21;;;;;;;14.70;8.68;;;3.50;82.50;;;;;;4916174;29;20048;-83
2021/01/13 03:05:48;;;;;;;14.02;7.43;;;3.50;82.60;;;;;;4906531;29;20046;-83
2021/01/13 03:08:14;;;;;;;14.40;7.25;;;3.50;82.60;;;;;;4917455;29;20050;-83
2021/01/13 03:10:42;;;;;;;21.15;8.90;;;3.50;82.70;;;;;;4917793;29;20490;-83
2021/01/13 03:13:08;;;;;;;11.77;7.07;;;3.50;82.70;;;;;;4934447;29;20071;-83
2021/01/13 03:15:35;;;;;;;13.50;7.03;;;3.50;82.80;;;;;;4934556;29;20031;-83
2021/01/13 03:18:19;;;;;;;14.10;8.07;;;3.50;82.80;;;;;;4934312;29;20371;-83
2021/01/13 03:20:45;;;;;;;15.10;6.95;;;3.50;82.90;;;;;;4880302;29;20415;-83
2021/01/13 03:23:22;;;;;;;10.43;7.32;;;3.50;82.90;;;;;;4896438;29;20036;-83
2021/01/13 03:26:03;;;;;;;11.90;6.90;;;3.50;82.90;;;;;;4896638;29;20530;-83
2021/01/13 03:28:34;;;;;;;11.20;6.03;;;3.50;82.80;;;;;;4896281;29;20140;-83
2021/01/13 03:31:01;;;;;;;12.13;7.10;;;3.50;82.70;;;;;;4915244;29;20034;-83
2021/01/13 03:33:46;;;;;;;13.23;6.80;;;3.50;82.70;;;;;;4907917;29;20359;-83
2021/01/13 03:36:23;;;;;;;10.98;5.80;;;3.50;82.70;;;;;;4917128;29;20035;-83
2021/01/13 03:39:06;;;;;;;13.10;6.50;;;3.60;82.70;;;;;;4933195;29;20047;-83
2021/01/13 03:41:53;;;;;;;12.45;7.15;;;3.60;82.70;;;;;;4934572;29;20039;-83
2021/01/13 03:44:46;;;;;;;13.73;6.30;;;3.60;82.90;;;;;;4934147;29;20044;-83
2021/01/13 03:47:41;;;;;;;12.60;6.50;;;3.60;82.90;;;;;;4934075;29;20038;-83
2021/01/13 03:50:24;;;;;;;11.45;6.45;;;3.60;83.00;;;;;;4865619;29;20080;-84
2021/01/13 03:52:57;;;;;;;11.30;6.93;;;3.60;83.30;;;;;;4896306;29;20043;-84
2021/01/13 03:55:27;;;;;;;13.05;6.95;;;3.50;83.20;;;;;;4879202;29;20060;-84
2021/01/13 03:57:59;;;;;;;13.18;6.70;;;3.50;83.30;;;;;;4888702;29;20450;-83
2021/01/13 04:00:28;;;;;;;10.80;6.70;;;3.60;83.30;;;;;;4898006;29;20071;-83
2021/01/13 04:03:10;;;;;;;13.00;6.85;;;3.60;83.30;;;;;;4898160;29;20044;-83
2021/01/13 04:05:41;;;;;;;14.60;8.43;;;3.60;83.40;;;;;;4897122;29;20063;-84
2021/01/13 04:08:10;;;;;;;13.70;8.02;;;3.60;83.50;;;;;;4898026;29;20036;-84
2021/01/13 04:10:36;;;;;;;14.15;8.45;;;3.60;83.80;;;;;;4882558;29;20032;-83
2021/01/13 04:13:15;;;;;;;14.18;8.18;;;3.60;84.10;;;;;;4898260;29;20051;-84
2021/01/13 04:15:41;;;;;;;14.63;7.93;;;3.60;84.20;;;;;;4898159;29;20088;-83
2021/01/13 04:18:09;;;;;;;13.95;7.63;;;3.60;84.00;;;;;;4882619;29;20040;-84
2021/01/13 04:20:36;;;;;;;13.48;7.70;;;3.60;83.90;;;;;;4898109;29;20044;-84
2021/01/13 04:23:04;;;;;;;15.85;8.13;;;3.70;83.90;;;;;;4915095;29;20048;-84
2021/01/13 04:25:30;;;;;;;12.73;6.60;;;3.70;84.00;;;;;;4917068;29;20056;-85
2021/01/13 04:27:56;;;;;;;16.20;8.18;;;3.70;83.80;;;;;;4937907;29;20139;-84
2021/01/13 04:30:25;;;;;;;14.60;7.82;;;3.70;83.90;;;;;;4904820;29;20109;-84
2021/01/13 04:32:55;;;;;;;13.77;8.30;;;3.70;84.00;;;;;;4906237;29;20044;-88
2021/01/13 04:35:25;;;;;;;18.05;9.52;;;3.70;84.00;;;;;;4937717;29;20042;-89
2021/01/13 04:37:54;;;;;;;15.68;10.02;;;3.70;84.20;;;;;;4905190;29;20058;-88
2021/01/13 04:40:37;;;;;;;13.40;8.40;;;3.70;84.20;;;;;;4921553;29;20068;-88
2021/01/13 04:43:08;;;;;;;14.52;9.10;;;3.70;84.20;;;;;;4938745;29;20054;-88
2021/01/13 04:45:42;;;;;;;16.10;8.30;;;3.80;84.20;;;;;;4921216;29;20036;-88
2021/01/13 04:48:18;;;;;;;20.23;10.20;;;3.80;84.20;;;;;;4902516;29;20044;-89
2021/01/13 04:50:53;;;;;;;14.77;9.35;;;3.80;84.30;;;;;;4918149;29;20040;-88
2021/01/13 04:53:21;;;;;;;17.00;9.65;;;3.80;84.30;;;;;;4886315;29;20043;-86
2021/01/13 04:55:51;;;;;;;15.90;9.75;;;3.80;84.30;;;;;;4920558;29;20052;-86
2021/01/13 04:58:44;;;;;;;16.92;9.45;;;3.80;84.30;;;;;;4915895;29;20180;-86
2021/01/13 05:01:59;;;;;;;18.00;8.93;;;3.80;84.20;;;;;;4901324;29;20044;-86
2021/01/13 05:04:44;;;;;;;20.58;9.95;;;3.80;84.20;;;;;;4918147;29;20104;-86
2021/01/13 05:07:20;;;;;;;17.75;9.13;;;3.70;84.30;;;;;;4901211;29;20036;-86
2021/01/13 05:10:04;;;;;;;15.98;8.93;;;3.70;84.30;;;;;;4918510;29;20024;-86
2021/01/13 05:12:56;;;;;;;17.27;8.35;;;3.70;84.30;;;;;;4901166;29;20513;-86
2021/01/13 05:15:23;;;;;;;12.88;7.95;;;3.80;84.40;;;;;;4896062;29;20397;-86
2021/01/13 05:17:58;;;;;;;14.30;8.48;;;3.80;84.40;;;;;;4920259;29;20486;-86
2021/01/13 05:20:36;;;;;;;12.82;6.93;;;3.70;84.30;;;;;;4919799;29;20043;-86
2021/01/13 05:23:03;;;;;;;14.30;7.93;;;3.80;84.30;;;;;;4937474;29;20040;-86
2021/01/13 05:25:49;;;;;;;18.75;9.85;;;3.80;84.30;;;;;;4919497;29;20387;-85
2021/01/13 05:28:16;;;;;;;18.40;8.98;;;3.80;84.50;;;;;;4919769;29;20075;-86
2021/01/13 05:31:02;;;;;;;16.05;8.93;;;3.80;84.60;;;;;;4897525;29;20040;-86
2021/01/13 05:33:30;;;;;;;12.50;7.63;;;3.80;84.50;;;;;;4918975;29;20553;-86
2021/01/13 05:36:03;;;;;;;12.95;8.38;;;3.80;84.40;;;;;;4919836;29;20039;-85
2021/01/13 05:38:38;;;;;;;12.10;8.27;;;3.80;84.40;;;;;;4919468;29;20036;-86
2021/01/13 05:41:11;;;;;;;14.13;8.02;;;3.80;84.20;;;;;;4936814;29;20036;-86
2021/01/13 05:43:46;;;;;;;12.27;8.05;;;3.80;84.20;;;;;;4935904;29;20039;-86
2021/01/13 05:46:13;;;;;;;12.80;7.53;;;3.80;84.10;;;;;;4918105;29;20036;-86
2021/01/13 05:48:46;;;;;;;12.32;7.53;;;3.80;84.10;;;;;;4919638;29;20040;-86
2021/01/13 05:51:13;;;;;;;15.45;8.93;;;3.80;84.00;;;;;;4919134;29;20491;-86
2021/01/13 05:53:49;;;;;;;14.98;8.15;;;3.80;84.00;;;;;;4883555;29;20040;-86
2021/01/13 05:56:17;;;;;;;16.33;9.35;;;3.80;84.10;;;;;;4898351;29;20040;-86
2021/01/13 05:58:42;;;;;;;12.13;8.25;;;3.80;84.10;;;;;;4897315;29;20040;-86
2021/01/13 06:01:37;;;;;;;16.50;8.18;;;3.80;84.10;;;;;;4881568;29;20067;-86
2021/01/13 06:04:06;;;;;;;13.23;8.27;;;3.80;84.00;;;;;;4935964;29;20050;-86
2021/01/13 06:06:35;;;;;;;10.65;7.45;;;3.80;83.90;;;;;;4918919;29;20063;-86
2021/01/13 06:09:02;;;;;;;17.23;8.23;;;3.80;83.80;;;;;;4908085;29;20040;-86
2021/01/13 06:11:31;;;;;;;15.55;7.43;;;3.80;83.70;;;;;;4900258;29;20042;-85
2021/01/13 06:13:57;;;;;;;15.27;8.73;;;3.80;83.70;;;;;;4883762;29;20043;-86
2021/01/13 06:16:23;;;;;;;15.73;8.18;;;3.80;83.70;;;;;;4909205;29;20028;-86
2021/01/13 06:18:51;;;;;;;19.67;8.73;;;3.80;83.70;;;;;;4900260;29;20044;-86
2021/01/13 06:21:17;;;;;;;14.23;7.70;;;3.80;83.60;;;;;;4900407;29;20047;-89
2021/01/13 06:23:50;;;;;;;13.18;7.55;;;3.80;83.60;;;;;;4899584;29;20048;-88
2021/01/13 06:26:17;;;;;;;14.57;8.02;;;3.80;83.60;;;;;;4897262;29;20037;-88
2021/01/13 06:28:58;;;;;;;12.85;6.97;;;3.80;83.60;;;;;;4897525;29;20045;-89
2021/01/13 06:31:25;;;;;;;10.55;7.18;;;3.80;83.40;;;;;;4881284;29;20071;-83
2021/01/13 06:34:10;;;;;;;15.20;7.35;;;3.80;83.40;;;;;;4899346;29;20059;-83
2021/01/13 06:36:57;;;;;;;11.57;7.60;;;3.80;83.30;;;;;;4899267;29;20435;-83
2021/01/13 06:39:24;;;;;;;12.60;7.40;;;3.80;83.30;;;;;;4909477;29;20091;-83
2021/01/13 06:41:49;;;;;;;16.75;7.80;;;3.80;83.30;;;;;;4905759;29;20052;-84
2021/01/13 06:44:18;;;;;;;12.20;7.32;;;3.80;83.20;;;;;;4916424;29;20032;-83
2021/01/13 06:46:45;;;;;;;10.90;7.55;;;3.80;83.20;;;;;;4904158;29;20083;-85
2021/01/13 06:49:16;;;;;;;13.80;8.00;;;3.80;83.20;;;;;;4917909;29;20068;-84
2021/01/13 06:51:44;;;;;;;14.10;8.15;;;3.80;83.50;;;;;;4918251;29;20028;-84
2021/01/13 06:54:17;;;;;;;13.75;8.18;;;3.80;83.20;;;;;;4918192;29;20032;-84
2021/01/13 06:56:46;;;;;;;20.80;8.07;;;3.80;83.20;;;;;;4918282;29;20047;-85
2021/01/13 06:59:13;;;;;;;11.57;7.70;;;3.80;83.20;;;;;;4918258;29;20036;-84
2021/01/13 07:01:58;;;;;;;16.50;8.50;;;3.80;83.20;;;;;;4913490;29;20036;-84
2021/01/13 07:04:25;;;;;;;14.10;8.82;;;3.80;83.20;;;;;;4901247;29;20425;-84
2021/01/13 07:07:05;;;;;;;13.48;8.73;;;3.70;83.10;;;;;;4928624;29;20044;-87
2021/01/13 07:09:45;;;;;;;14.10;7.70;;;3.70;83.20;;;;;;4898781;29;20091;-86
2021/01/13 07:12:19;;;;;;;13.07;7.50;;;3.70;83.10;;;;;;4873656;29;20131;-86
2021/01/13 07:14:47;;;;;;;12.50;7.70;;;3.70;83.10;;;;;;4893255;29;20067;-88
2021/01/13 07:17:20;;;;;;;14.38;7.07;;;3.70;83.10;;;;;;4883966;29;20041;-88
2021/01/13 07:19:51;;;;;;;15.95;8.00;;;3.70;83.10;;;;;;4880031;29;20056;-88
2021/01/13 07:22:22;;;;;;;17.17;8.73;;;3.70;83.00;;;;;;4883858;29;20402;-88
2021/01/13 07:24:49;;;;;;;13.00;7.78;;;3.70;83.10;;;;;;4916353;23;20054;-88
2021/01/13 07:27:16;;;;;;;14.05;7.90;;;3.70;83.10;;;;;;4884312;29;20085;-88
2021/01/13 07:29:42;;;;;;;14.32;7.90;;;3.70;83.10;;;;;;4883401;29;20032;-88
2021/01/13 07:32:09;;;;;;;14.90;7.60;;;3.70;83.10;;;;;;4915267;29;20045;-88
2021/01/13 07:34:39;;;;;;;13.27;8.18;;;3.70;83.10;;;;;;4899211;29;20036;-89
2021/01/13 07:37:16;;;;;;;11.32;7.70;;;3.70;83.20;;;;;;4899284;29;20095;-88
2021/01/13 07:40:09;;;;;;;14.15;7.90;;;3.70;83.10;;;;;;4901011;29;20478;-88
2021/01/13 07:42:40;;;;;;;11.75;7.57;;;3.70;83.20;;;;;;4914840;29;20091;-89
2021/01/13 07:45:10;;;;;;;15.95;8.90;;;3.70;83.10;;;;;;4914102;29;20044;-88
2021/01/13 07:48:11;;;;;;;13.77;7.43;;;3.70;83.10;;;;;;4898911;29;20048;-89
2021/01/13 07:50:49;;;;;;;16.45;8.15;;;3.70;83.20;;;;;;4899077;29;20036;-88
2021/01/13 07:53:27;;;;;;;12.13;7.90;;;3.60;83.10;;;;;;4899408;29;20243;-87
2021/01/13 07:56:00;;;;;;;14.50;8.20;;;3.60;83.10;;;;;;4899145;29;20138;-89
2021/01/13 07:58:28;;;;;;;15.20;7.88;;;3.60;83.20;;;;;;4891926;29;20107;-88
2021/01/13 08:01:16;;;;;;;13.68;8.02;;;3.60;83.20;;;;;;4910663;29;20044;-88
2021/01/13 08:03:51;;;;;;;13.48;8.35;;;3.60;83.20;;;;;;4912948;29;20396;-88
2021/01/13 08:06:28;;;;;;;14.80;8.68;;;3.60;83.30;;;;;;4911298;29;20035;-88
2021/01/13 08:08:59;;;;;;;13.32;8.00;;;3.60;83.30;;;;;;4928136;29;20033;-88
2021/01/13 08:11:51;;;;;;;10.98;7.25;;;3.60;83.30;;;;;;4929520;29;20032;-88
2021/01/13 08:14:35;;;;;;;11.15;7.72;;;3.60;83.30;;;;;;4887954;29;20040;-89
2021/01/13 08:17:23;;;;;;;14.57;8.32;;;3.70;83.30;;;;;;4938472;29;20107;-88
2021/01/13 08:19:56;;;;;;;13.05;7.35;;;3.70;83.30;;;;;;4908268;29;20399;-88
2021/01/13 08:22:25;;;;;;;18.00;8.60;;;3.70;83.30;;;;;;4903698;29;20072;-88
2021/01/13 08:25:01;;;;;;;15.77;9.27;;;3.60;83.30;;;;;;4912766;29;20087;-89
2021/01/13 08:27:28;;;;;;;14.75;8.50;;;3.70;83.40;;;;;;4918530;29;20036;-88
2021/01/13 08:29:56;;;;;;;13.98;7.95;;;3.70;83.50;;;;;;4916830;29;20486;-88
2021/01/13 08:32:30;;;;;;;16.13;8.75;;;3.70;83.60;;;;;;4905376;29;20040;-88
2021/01/13 08:35:04;;;;;;;17.50;8.60;;;3.70;83.60;;;;;;4902935;29;20044;-88
2021/01/13 08:37:34;;;;;;;15.55;8.40;;;3.70;83.60;;;;;;4902612;29;20482;-89
2021/01/13 08:40:27;;;;;;;17.15;10.10;;;3.70;83.60;;;;;;4913764;29;20043;-89
2021/01/13 08:43:13;;;;;;;14.60;9.23;;;3.70;83.80;;;;;;4920913;29;20048;-89
2021/01/13 08:45:49;;;;;;;14.63;9.38;;;3.70;83.80;;;;;;4920762;29;20075;-88
2021/01/13 08:48:38;;;;;;;15.30;9.00;;;3.80;83.90;;;;;;4936478;29;20032;-89
2021/01/13 08:51:04;;;;;;;13.82;8.82;;;3.80;83.90;;;;;;4903632;29;20041;-88
2021/01/13 08:53:32;;;;;;;15.77;9.50;;;3.80;83.80;;;;;;4902256;29;20104;-88
2021/01/13 08:55:58;;;;;;;14.73;9.00;;;3.80;83.70;;;;;;4909644;29;20036;-88
2021/01/13 08:58:37;;;;;;;18.25;10.18;;;3.80;83.70;;;;;;4905458;29;20224;-88
2021/01/13 09:01:09;;;;;;;15.77;9.40;;;3.80;83.80;;;;;;4906344;29;20036;-88
2021/01/13 09:03:43;;;;;;;16.95;9.40;;;3.80;83.80;;;;;;4903097;29;20043;-88
2021/01/13 09:06:21;;;;;;;19.25;9.75;;;3.80;83.80;;;;;;4896785;29;20044;-88
2021/01/13 09:08:49;;;;;;;13.77;8.50;;;3.90;83.90;;;;;;4913555;29;20494;-88
2021/01/13 09:11:33;;;;;;;17.60;11.68;;;3.90;83.90;;;;;;4898511;29;20040;-88
2021/01/13 09:14:21;;;;;;;14.10;9.50;;;3.90;84.10;;;;;;4919791;29;20039;-88
2021/01/13 09:16:54;;;;;;;16.75;11.05;;;3.90;84.00;;;;;;4916044;29;20087;-88
2021/01/13 09:19:37;;;;;;;17.05;10.32;;;3.90;84.10;;;;;;4886361;29;20048;-88
2021/01/13 09:22:10;;;;;;;17.92;10.80;;;3.90;84.20;;;;;;4912662;29;20260;-87
2021/01/13 09:24:37;;;;;;;16.60;10.20;;;3.90;84.10;;;;;;4896081;29;20055;-87
2021/01/13 09:27:04;;;;;;;18.38;10.38;;;4.00;84.20;;;;;;4920164;29;20044;-88
2021/01/13 09:29:46;;;;;;;15.30;10.65;;;4.00;84.20;;;;;;4905104;29;20529;-88
2021/01/13 09:32:15;;;;;;;19.05;10.82;;;4.00;84.30;;;;;;4936355;29;20063;-88
2021/01/13 09:34:41;;;;;;;;;;;4.00;84.90;;;;;;4898747;29;20043;-88
2021/01/13 09:37:07;;;;;;;14.40;9.27;;;4.00;84.20;;;;;;4935745;29;19915;-88
2021/01/13 09:39:38;;;;;;;16.00;10.57;;;4.00;84.10;;;;;;4897970;29;20470;-87
2021/01/13 09:42:06;;;;;;;18.38;10.63;;;4.00;84.10;;;;;;4930256;29;20471;-88
2021/01/13 09:44:35;;;;;;;16.25;10.65;;;4.00;84.10;;;;;;4910881;29;20044;-87
2021/01/13 09:47:23;;;;;;;15.43;11.32;;;4.10;84.20;;;;;;4932209;29;20537;-87
2021/01/13 09:49:49;;;;;;;16.38;10.80;;;4.10;84.30;;;;;;4909593;29;20043;-87
2021/01/13 09:52:15;;;;;;;17.33;11.02;;;4.10;84.30;;;;;;4919997;29;20043;-88
2021/01/13 09:54:49;;;;;;;24.38;12.20;;;4.10;84.40;;;;;;4919733;29;20477;-87
2021/01/13 09:57:15;;;;;;;18.08;11.00;;;4.10;84.40;;;;;;4934487;29;20103;-88
2021/01/13 10:00:00;;;;;;;17.13;9.95;;;4.10;84.30;;;;;;4897490;29;20047;-87
2021/01/13 10:02:28;;;;;;;17.55;11.82;;;4.20;84.30;;;;;;4906626;29;20097;-88
2021/01/13 10:04:54;;;;;;;21.50;12.93;;;4.20;84.20;;;;;;4917485;29;20032;-87
2021/01/13 10:07:29;;;;;;;25.17;16.10;;;4.20;84.30;;;;;;4897858;29;20519;-88
2021/01/13 10:09:55;;;;;;;23.67;15.85;;;4.20;84.30;;;;;;4915608;29;20031;-87
2021/01/13 10:12:21;;;;;;;20.15;14.95;;;4.20;84.40;;;;;;4895724;29;20032;-88
2021/01/13 10:15:01;;;;;;;25.27;14.57;;;4.30;84.40;;;;;;4902346;29;20046;-87
2021/01/13 10:17:27;;;;;;;27.58;16.75;;;4.20;84.30;;;;;;4910460;29;20134;-85
2021/01/13 10:19:54;;;;;;;24.88;16.42;;;4.30;84.50;;;;;;4885928;29;20040;-88
2021/01/13 10:22:29;;;;;;;23.65;15.20;;;4.30;84.60;;;;;;4895270;29;20051;-86
2021/01/13 10:24:55;;;;;;;24.40;13.73;;;4.30;84.70;;;;;;4896226;29;20116;-87
2021/01/13 10:27:22;;;;;;;19.08;13.60;;;4.30;84.60;;;;;;4920662;29;20040;-86
2021/01/13 10:29:48;;;;;;;18.60;13.93;;;4.30;84.50;;;;;;4900837;29;20040;-86
2021/01/13 10:32:15;;;;;;;21.92;14.52;;;4.40;84.60;;;;;;4884600;29;20032;-89
2021/01/13 10:34:41;;;;;;;20.33;14.82;;;4.40;84.70;;;;;;4919235;29;20119;-87
2021/01/13 10:37:08;;;;;;;22.42;15.48;;;4.40;84.80;;;;;;4935490;29;20040;-87
2021/01/13 10:39:34;;;;;;;25.13;15.75;;;4.40;85.00;;;;;;4893602;29;20103;-88
2021/01/13 10:42:02;;;;;;;26.33;15.88;;;4.40;85.20;;;;;;4917943;29;20493;-87
2021/01/13 10:44:29;;;;;;;23.50;14.55;;;4.40;85.20;;;;;;4916026;29;20166;-84
2021/01/13 10:46:55;;;;;;;23.08;13.98;;;4.50;85.20;;;;;;4904282;29;20071;-86
2021/01/13 10:49:28;;;;;;;20.27;14.50;;;4.60;85.80;;;;;;4916605;29;20090;-83
2021/01/13 10:52:00;;;;;;;21.83;13.57;;;4.60;85.20;;;;;;4912967;29;20118;-87
2021/01/13 10:54:28;;;;;;;17.27;11.88;;;4.60;85.10;;;;;;4915797;29;20051;-84
2021/01/13 10:56:59;;;;;;;20.88;13.80;;;4.60;84.90;;;;;;4915224;29;20040;-87
2021/01/13 10:59:26;;;;;;;21.00;13.77;;;4.70;85.00;;;;;;4914566;29;20054;-90
2021/01/13 11:02:02;;;;;;;25.67;15.00;;;4.70;85.00;;;;;;4887807;29;20070;-88
2021/01/13 11:04:40;;;;;;;22.95;13.18;;;4.70;85.20;;;;;;4911294;29;20033;-88
2021/01/13 11:07:10;;;;;;;23.33;15.13;;;4.80;85.20;;;;;;4884487;29;20466;-87
2021/01/13 11:09:48;;;;;;;18.92;13.30;;;4.80;85.30;;;;;;4900492;29;20063;-87
2021/01/13 11:12:21;;;;;;;24.52;14.70;;;4.90;85.30;;;;;;4900958;29;20032;-88
2021/01/13 11:14:51;;;;;;;23.42;14.90;;;4.90;85.60;;;;;;4909690;29;20043;-88
2021/01/13 11:17:19;;;;;;;20.30;13.68;;;5.00;85.70;;;;;;4903463;29;20095;-88
2021/01/13 11:19:56;;;;;;;22.95;13.75;;;5.10;85.60;;;;;;4895053;29;20040;-88
2021/01/13 11:22:45;;;;;;;19.55;12.77;;;5.10;85.50;;;;;;4916347;29;20474;-89
2021/01/13 11:25:26;;;;;;;25.35;13.95;;;5.20;85.60;;;;;;4912574;29;20048;-89
2021/01/13 11:28:13;;;;;;;18.55;12.55;;;5.20;85.40;;;;;;4900036;29;20036;-88
2021/01/13 11:30:43;;;;;;;21.10;12.80;;;5.30;85.50;;;;;;4900268;29;20032;-89
2021/01/13 11:33:12;;;;;;;23.02;13.73;;;5.30;85.50;;;;;;4898124;29;20028;-87
2021/01/13 11:35:43;;;;;;;21.85;13.15;;;5.40;86.20;;;;;;4889492;29;20382;-89
2021/01/13 11:38:35;;;;;;;17.85;11.85;;;5.40;85.40;;;;;;4877861;29;20043;-88
2021/01/13 11:41:22;;;;;;;24.67;12.80;;;5.50;85.50;;;;;;4916553;29;20122;-88
2021/01/13 11:44:10;;;;;;;17.80;11.18;;;5.50;85.60;;;;;;4916422;29;20044;-88
2021/01/13 11:46:43;;;;;;;25.25;12.40;;;5.60;85.40;;;;;;4916646;29;20054;-88
2021/01/13 11:49:14;;;;;;;24.48;12.35;;;5.70;85.50;;;;;;4915762;29;20040;-89
2021/01/13 11:51:46;;;;;;;25.70;11.15;;;5.70;85.50;;;;;;4918387;29;20032;-88
2021/01/13 11:54:28;;;;;;;20.67;11.93;;;5.80;85.30;;;;;;4918018;29;20107;-88
2021/01/13 11:57:14;;;;;;;19.08;10.98;;;5.80;85.20;;;;;;4913325;29;20398;-89
2021/01/13 11:59:40;;;;;;;20.02;11.52;;;5.90;85.10;;;;;;4896034;29;20056;-88
2021/01/13 12:02:09;;;;;;;23.92;11.27;;;5.90;84.90;;;;;;4891952;29;20398;-89
2021/01/13 12:04:41;;;;;;;;;;;6.00;84.70;;;;;;4908858;29;20118;-89
2021/01/13 12:07:10;;;;;;;19.98;11.40;;;6.00;84.60;;;;;;4890258;29;20029;-88
2021/01/13 12:09:39;;;;;;;20.88;11.73;;;6.00;84.40;;;;;;4913161;29;20107;-89
2021/01/13 12:12:05;;;;;;;17.08;10.82;;;6.00;84.30;;;;;;4908419;29;20040;-88
2021/01/13 12:14:44;;;;;;;19.65;12.05;;;6.10;84.20;;;;;;4884389;29;20044;-88
2021/01/13 12:17:10;;;;;;;;;;;6.10;84.10;;;;;;4899078;29;20088;-88
2021/01/13 12:19:41;;;;;;;14.82;10.15;;;6.10;84.10;;;;;;4887626;29;19958;-88
2021/01/13 12:22:07;;;;;;;15.05;10.38;;;6.20;84.00;;;;;;4929300;29;20119;-88
2021/01/13 12:24:42;;;;;;;17.40;10.80;;;6.20;83.90;;;;;;4900391;29;20115;-88
2021/01/13 12:27:21;;;;;;;19.40;10.38;;;6.20;83.80;;;;;;4901332;29;20054;-88
2021/01/13 12:29:47;;;;;;;20.00;11.63;;;6.20;83.70;;;;;;4904834;29;20593;-88
2021/01/13 12:32:12;;;;;;;24.13;11.90;;;6.30;83.60;;;;;;4913711;29;20473;-88
2021/01/13 12:34:38;;;;;;;19.35;11.10;;;6.30;83.50;;;;;;4889004;29;20099;-90
2021/01/13 12:37:05;;;;;;;17.85;10.57;;;6.30;83.40;;;;;;4898796;29;20044;-90
2021/01/13 12:39:35;;;;;;;20.17;10.13;;;6.30;83.40;;;;;;4899186;29;20518;-89
2021/01/13 12:42:02;;;;;;;19.35;10.20;;;6.40;83.40;;;;;;4883831;29;20047;-89
2021/01/13 12:44:29;;;;;;;19.52;10.75;;;6.40;83.30;;;;;;4883458;29;20076;-90
2021/01/13 12:47:03;;;;;;;34.30;11.57;;;6.40;83.10;;;;;;4899937;29;20032;-90
2021/01/13 12:49:30;;;;;;;17.85;10.25;;;6.50;83.10;;;;;;4902819;29;20028;-90
2021/01/13 12:51:57;;;;;;;18.67;10.38;;;6.50;82.90;;;;;;4902584;29;20028;-90
2021/01/13 12:54:24;;;;;;;18.35;10.70;;;6.50;82.90;;;;;;4920655;29;20044;-89
2021/01/13 12:56:51;;;;;;;18.13;9.65;;;6.50;82.80;;;;;;4887000;29;20128;-89
2021/01/13 12:59:16;;;;;;;18.27;10.48;;;6.50;82.70;;;;;;4901968;29;20051;-90
2021/01/13 13:01:44;;;;;;;17.38;9.80;;;6.50;82.50;;;;;;4902484;29;20119;-89
2021/01/13 13:04:14;;;;;;;13.97;8.87;;;6.50;82.40;;;;;;4902204;29;20036;-89
2021/01/13 13:06:40;;;;;;;16.20;9.43;;;6.50;82.40;;;;;;4918059;29;20031;-89
2021/01/13 13:09:07;;;;;;;12.82;9.20;;;6.60;82.20;;;;;;4886226;29;20048;-89
2021/01/13 13:11:34;;;;;;;18.85;10.00;;;6.50;82.00;;;;;;4904467;29;20087;-90
2021/01/13 13:14:00;;;;;;;24.08;10.98;;;6.50;82.00;;;;;;4897945;29;20044;-89